sensor_id;sensor_type;location;lat;lon;timestamp;pressure;altitude;pressure_sealevel;temperature;humidity
54850;BME280;47660;51.334;12.396;2024-01-27T00:02:06;101545.63;;;16.48;39.55
54850;BME280;47660;51.334;12.396;2024-01-27T00:04:32;101552.72;;;17.01;38.92
54850;BME280;47660;51.334;12.396;2024-01-27T00:06:57;101547.00;;;16.80;39.21
54850;BME280;47660;51.334;12.396;2024-01-27T00:09:22;101551.31;;;16.44;39.76
54850;BME280;47660;51.334;12.396;2024-01-27T00:11:47;101558.41;;;16.84;39.18
54850;BME280;47660;51.334;12.396;2024-01-27T00:14:13;101556.03;;;16.79;39.20
54850;BME280;47660;51.334;12.396;2024-01-27T00:16:38;101564.41;;;16.87;38.87
54850;BME280;47660;51.334;12.396;2024-01-27T00:19:03;101570.22;;;16.68;39.16
54850;BME280;47660;51.334;12.396;2024-01-27T00:21:29;101563.00;;;16.69;38.99
54850;BME280;47660;51.334;12.396;2024-01-27T00:23:54;101568.59;;;16.53;39.32
54850;BME280;47660;51.334;12.396;2024-01-27T00:26:20;101563.97;;;16.68;39.00
54850;BME280;47660;51.334;12.396;2024-01-27T00:28:45;101564.53;;;16.86;39.00
54850;BME280;47660;51.334;12.396;2024-01-27T00:31:10;101561.63;;;16.76;39.13
54850;BME280;47660;51.334;12.396;2024-01-27T00:33:35;101568.59;;;16.40;39.66
54850;BME280;47660;51.334;12.396;2024-01-27T00:36:01;101565.59;;;16.44;39.65
54850;BME280;47660;51.334;12.396;2024-01-27T00:38:26;101570.09;;;16.44;39.42
54850;BME280;47660;51.334;12.396;2024-01-27T00:40:51;101576.69;;;15.57;40.61
54850;BME280;47660;51.334;12.396;2024-01-27T00:43:17;101578.75;;;16.09;40.04
54850;BME280;47660;51.334;12.396;2024-01-27T00:45:42;101577.56;;;16.13;40.01
54850;BME280;47660;51.334;12.396;2024-01-27T00:48:07;101573.50;;;16.20;39.60
54850;BME280;47660;51.334;12.396;2024-01-27T00:50:32;101583.16;;;16.23;39.68
54850;BME280;47660;51.334;12.396;2024-01-27T00:52:58;101589.28;;;16.25;39.53
54850;BME280;47660;51.334;12.396;2024-01-27T00:55:23;101591.06;;;16.11;39.59
54850;BME280;47660;51.334;12.396;2024-01-27T00:57:48;101592.34;;;15.78;40.05
54850;BME280;47660;51.334;12.396;2024-01-27T01:00:14;101589.38;;;15.68;40.29
54850;BME280;47660;51.334;12.396;2024-01-27T01:02:39;101591.25;;;15.81;39.67
54850;BME280;47660;51.334;12.396;2024-01-27T01:05:06;101591.50;;;16.18;39.15
54850;BME280;47660;51.334;12.396;2024-01-27T01:07:31;101606.03;;;15.73;39.32
54850;BME280;47660;51.334;12.396;2024-01-27T01:09:57;101604.00;;;15.35;40.18
54850;BME280;47660;51.334;12.396;2024-01-27T01:12:22;101614.56;;;15.09;40.72
54850;BME280;47660;51.334;12.396;2024-01-27T01:14:47;101610.69;;;15.84;39.36
54850;BME280;47660;51.334;12.396;2024-01-27T01:17:13;101611.69;;;16.11;38.93
54850;BME280;47660;51.334;12.396;2024-01-27T01:19:39;101607.41;;;16.21;38.68
54850;BME280;47660;51.334;12.396;2024-01-27T01:22:05;101613.56;;;15.81;39.21
54850;BME280;47660;51.334;12.396;2024-01-27T01:24:30;101606.38;;;16.37;38.27
54850;BME280;47660;51.334;12.396;2024-01-27T01:26:55;101619.41;;;16.15;38.27
54850;BME280;47660;51.334;12.396;2024-01-27T01:29:21;101627.66;;;16.12;38.32
54850;BME280;47660;51.334;12.396;2024-01-27T01:31:47;101623.06;;;15.87;38.52
54850;BME280;47660;51.334;12.396;2024-01-27T01:34:12;101620.75;;;15.81;38.70
54850;BME280;47660;51.334;12.396;2024-01-27T01:36:38;101622.28;;;14.99;39.43
54850;BME280;47660;51.334;12.396;2024-01-27T01:39:03;101622.66;;;15.22;39.47
54850;BME280;47660;51.334;12.396;2024-01-27T01:41:28;101623.13;;;15.43;38.98
54850;BME280;47660;51.334;12.396;2024-01-27T01:43:54;101618.22;;;15.65;38.55
54850;BME280;47660;51.334;12.396;2024-01-27T01:46:21;101609.25;;;15.93;38.12
54850;BME280;47660;51.334;12.396;2024-01-27T01:48:49;101610.50;;;15.45;38.56
54850;BME280;47660;51.334;12.396;2024-01-27T01:51:15;101617.13;;;15.67;38.70
54850;BME280;47660;51.334;12.396;2024-01-27T01:53:41;101614.69;;;15.50;38.14
54850;BME280;47660;51.334;12.396;2024-01-27T01:56:08;101620.66;;;15.82;38.32
54850;BME280;47660;51.334;12.396;2024-01-27T01:58:33;101628.38;;;15.45;38.47
54850;BME280;47660;51.334;12.396;2024-01-27T02:01:00;101616.69;;;16.02;37.73
54850;BME280;47660;51.334;12.396;2024-01-27T02:03:25;101630.50;;;15.40;38.54
54850;BME280;47660;51.334;12.396;2024-01-27T02:05:51;101622.72;;;15.64;38.22
54850;BME280;47660;51.334;12.396;2024-01-27T02:08:16;101620.66;;;15.40;38.29
54850;BME280;47660;51.334;12.396;2024-01-27T02:10:42;101622.56;;;15.24;38.38
54850;BME280;47660;51.334;12.396;2024-01-27T02:15:43;101631.63;;;14.47;39.56
54850;BME280;47660;51.334;12.396;2024-01-27T02:18:08;101638.06;;;15.33;38.18
54850;BME280;47660;51.334;12.396;2024-01-27T02:20:33;101629.47;;;14.68;39.25
54850;BME280;47660;51.334;12.396;2024-01-27T02:22:59;101635.78;;;15.12;38.50
54850;BME280;47660;51.334;12.396;2024-01-27T02:25:28;101637.88;;;15.22;38.65
54850;BME280;47660;51.334;12.396;2024-01-27T02:27:54;101643.34;;;14.91;38.65
54850;BME280;47660;51.334;12.396;2024-01-27T02:30:19;101643.66;;;14.70;38.93
54850;BME280;47660;51.334;12.396;2024-01-27T02:32:44;101650.84;;;14.84;38.81
54850;BME280;47660;51.334;12.396;2024-01-27T02:35:09;101660.25;;;14.92;38.69
54850;BME280;47660;51.334;12.396;2024-01-27T02:37:35;101640.97;;;15.15;38.30
54850;BME280;47660;51.334;12.396;2024-01-27T02:40:00;101648.00;;;14.88;38.61
54850;BME280;47660;51.334;12.396;2024-01-27T02:42:25;101646.06;;;14.75;38.83
54850;BME280;47660;51.334;12.396;2024-01-27T02:44:50;101652.03;;;14.34;39.38
54850;BME280;47660;51.334;12.396;2024-01-27T02:47:16;101644.25;;;14.45;39.44
54850;BME280;47660;51.334;12.396;2024-01-27T02:49:41;101656.31;;;14.52;39.16
54850;BME280;47660;51.334;12.396;2024-01-27T02:52:06;101652.78;;;14.05;39.50
54850;BME280;47660;51.334;12.396;2024-01-27T02:54:31;101645.19;;;14.44;39.33
54850;BME280;47660;51.334;12.396;2024-01-27T02:56:57;101653.72;;;14.81;38.66
54850;BME280;47660;51.334;12.396;2024-01-27T02:59:22;101667.44;;;13.98;39.93
54850;BME280;47660;51.334;12.396;2024-01-27T03:01:47;101662.53;;;14.98;38.47
54850;BME280;47660;51.334;12.396;2024-01-27T03:04:12;101662.16;;;15.04;37.94
54850;BME280;47660;51.334;12.396;2024-01-27T03:06:38;101668.38;;;15.05;38.19
54850;BME280;47660;51.334;12.396;2024-01-27T03:09:03;101679.31;;;15.30;37.59
54850;BME280;47660;51.334;12.396;2024-01-27T03:11:28;101674.59;;;15.63;37.02
54850;BME280;47660;51.334;12.396;2024-01-27T03:13:54;101678.75;;;15.82;36.87
54850;BME280;47660;51.334;12.396;2024-01-27T03:16:19;101680.38;;;15.99;36.65
54850;BME280;47660;51.334;12.396;2024-01-27T03:18:45;101682.34;;;15.68;36.98
54850;BME280;47660;51.334;12.396;2024-01-27T03:21:10;101685.53;;;16.02;36.63
54850;BME280;47660;51.334;12.396;2024-01-27T03:23:35;101687.75;;;15.81;36.74
54850;BME280;47660;51.334;12.396;2024-01-27T03:26:02;101695.16;;;16.19;36.62
54850;BME280;47660;51.334;12.396;2024-01-27T03:28:28;101694.97;;;15.66;36.96
54850;BME280;47660;51.334;12.396;2024-01-27T03:30:53;101697.75;;;15.21;37.79
54850;BME280;47660;51.334;12.396;2024-01-27T03:33:18;101689.75;;;14.29;39.03
54850;BME280;47660;51.334;12.396;2024-01-27T03:35:44;101689.06;;;15.32;37.54
54850;BME280;47660;51.334;12.396;2024-01-27T03:38:09;101689.44;;;15.54;37.22
54850;BME280;47660;51.334;12.396;2024-01-27T03:40:34;101701.38;;;15.05;37.64
54850;BME280;47660;51.334;12.396;2024-01-27T03:42:59;101703.72;;;14.95;38.12
54850;BME280;47660;51.334;12.396;2024-01-27T03:45:25;101706.31;;;14.66;38.65
54850;BME280;47660;51.334;12.396;2024-01-27T03:47:50;101700.41;;;14.92;38.29
54850;BME280;47660;51.334;12.396;2024-01-27T03:50:15;101709.38;;;14.91;38.48
54850;BME280;47660;51.334;12.396;2024-01-27T03:52:41;101710.75;;;14.51;39.24
54850;BME280;47660;51.334;12.396;2024-01-27T03:55:06;101709.69;;;13.91;40.05
54850;BME280;47660;51.334;12.396;2024-01-27T03:57:32;101706.88;;;13.45;40.86
54850;BME280;47660;51.334;12.396;2024-01-27T03:59:57;101698.72;;;14.28;39.56
54850;BME280;47660;51.334;12.396;2024-01-27T04:02:22;101690.72;;;14.12;40.00
54850;BME280;47660;51.334;12.396;2024-01-27T04:04:48;101715.81;;;14.09;40.26
54850;BME280;47660;51.334;12.396;2024-01-27T04:07:13;101711.41;;;14.24;39.78
54850;BME280;47660;51.334;12.396;2024-01-27T04:09:38;101708.06;;;14.05;39.92
54850;BME280;47660;51.334;12.396;2024-01-27T04:12:03;101718.03;;;14.01;40.05
54850;BME280;47660;51.334;12.396;2024-01-27T04:14:29;101722.81;;;13.96;40.16
54850;BME280;47660;51.334;12.396;2024-01-27T04:16:55;101728.47;;;14.38;39.47
54850;BME280;47660;51.334;12.396;2024-01-27T04:19:20;101720.06;;;14.60;39.35
54850;BME280;47660;51.334;12.396;2024-01-27T04:21:46;101715.63;;;13.64;40.68
54850;BME280;47660;51.334;12.396;2024-01-27T04:24:11;101715.53;;;13.98;40.36
54850;BME280;47660;51.334;12.396;2024-01-27T04:26:36;101720.91;;;14.14;40.09
54850;BME280;47660;51.334;12.396;2024-01-27T04:29:01;101716.75;;;13.92;40.32
54850;BME280;47660;51.334;12.396;2024-01-27T04:31:26;101718.59;;;14.08;40.08
54850;BME280;47660;51.334;12.396;2024-01-27T04:33:52;101714.91;;;14.41;39.82
54850;BME280;47660;51.334;12.396;2024-01-27T04:36:27;101714.59;;;14.31;40.29
54850;BME280;47660;51.334;12.396;2024-01-27T04:38:54;101717.13;;;14.65;39.27
54850;BME280;47660;51.334;12.396;2024-01-27T04:41:19;101719.25;;;15.05;38.57
54850;BME280;47660;51.334;12.396;2024-01-27T04:43:44;101730.13;;;14.24;39.87
54850;BME280;47660;51.334;12.396;2024-01-27T04:46:09;101723.97;;;14.54;39.39
54850;BME280;47660;51.334;12.396;2024-01-27T04:48:35;101731.34;;;14.81;39.17
54850;BME280;47660;51.334;12.396;2024-01-27T04:51:00;101732.41;;;14.93;39.02
54850;BME280;47660;51.334;12.396;2024-01-27T04:53:25;101727.34;;;14.89;39.11
54850;BME280;47660;51.334;12.396;2024-01-27T04:55:50;101722.81;;;15.05;38.84
54850;BME280;47660;51.334;12.396;2024-01-27T04:58:16;101722.53;;;14.79;39.19
54850;BME280;47660;51.334;12.396;2024-01-27T05:00:41;101716.97;;;14.52;39.62
54850;BME280;47660;51.334;12.396;2024-01-27T05:03:06;101728.06;;;13.81;40.85
54850;BME280;47660;51.334;12.396;2024-01-27T05:05:35;101720.19;;;13.62;41.50
54850;BME280;47660;51.334;12.396;2024-01-27T05:08:00;101720.16;;;13.96;40.86
54850;BME280;47660;51.334;12.396;2024-01-27T05:10:26;101725.00;;;14.36;40.10
54850;BME280;47660;51.334;12.396;2024-01-27T05:12:51;101721.50;;;14.03;40.49
54850;BME280;47660;51.334;12.396;2024-01-27T05:15:17;101725.28;;;14.31;40.29
54850;BME280;47660;51.334;12.396;2024-01-27T05:17:42;101726.13;;;14.48;40.14
54850;BME280;47660;51.334;12.396;2024-01-27T05:20:07;101733.97;;;14.67;39.82
54850;BME280;47660;51.334;12.396;2024-01-27T05:22:33;101738.22;;;14.39;40.09
54850;BME280;47660;51.334;12.396;2024-01-27T05:24:58;101735.97;;;13.99;40.83
54850;BME280;47660;51.334;12.396;2024-01-27T05:27:23;101733.47;;;13.80;41.40
54850;BME280;47660;51.334;12.396;2024-01-27T05:29:48;101737.44;;;14.69;39.80
54850;BME280;47660;51.334;12.396;2024-01-27T05:32:14;101743.88;;;14.49;40.14
54850;BME280;47660;51.334;12.396;2024-01-27T05:34:40;101739.66;;;14.77;39.62
54850;BME280;47660;51.334;12.396;2024-01-27T05:37:05;101749.91;;;14.84;39.58
54850;BME280;47660;51.334;12.396;2024-01-27T05:39:30;101749.13;;;14.82;39.72
54850;BME280;47660;51.334;12.396;2024-01-27T05:41:57;101746.13;;;15.03;39.38
54850;BME280;47660;51.334;12.396;2024-01-27T05:44:22;101756.13;;;14.85;39.76
54850;BME280;47660;51.334;12.396;2024-01-27T05:46:47;101757.38;;;14.94;39.48
54850;BME280;47660;51.334;12.396;2024-01-27T05:49:13;101749.47;;;15.07;39.36
54850;BME280;47660;51.334;12.396;2024-01-27T05:51:38;101748.56;;;14.45;40.16
54850;BME280;47660;51.334;12.396;2024-01-27T05:54:03;101749.44;;;14.14;41.00
54850;BME280;47660;51.334;12.396;2024-01-27T05:56:29;101760.09;;;14.78;39.71
54850;BME280;47660;51.334;12.396;2024-01-27T05:58:54;101757.94;;;14.68;39.95
54850;BME280;47660;51.334;12.396;2024-01-27T06:01:19;101760.50;;;15.31;39.12
54850;BME280;47660;51.334;12.396;2024-01-27T06:03:45;101779.16;;;14.88;39.80
54850;BME280;47660;51.334;12.396;2024-01-27T06:06:10;101771.34;;;15.58;38.79
54850;BME280;47660;51.334;12.396;2024-01-27T06:08:36;101773.34;;;14.95;39.80
54850;BME280;47660;51.334;12.396;2024-01-27T06:11:01;101775.94;;;14.97;39.46
54850;BME280;47660;51.334;12.396;2024-01-27T06:13:28;101775.47;;;14.58;40.06
54850;BME280;47660;51.334;12.396;2024-01-27T06:15:53;101782.53;;;14.75;40.00
54850;BME280;47660;51.334;12.396;2024-01-27T06:18:18;101784.28;;;14.76;40.02
54850;BME280;47660;51.334;12.396;2024-01-27T06:20:44;101791.63;;;14.56;40.22
54850;BME280;47660;51.334;12.396;2024-01-27T06:23:09;101792.66;;;14.54;40.41
54850;BME280;47660;51.334;12.396;2024-01-27T06:25:34;101795.91;;;14.91;39.77
54850;BME280;47660;51.334;12.396;2024-01-27T06:28:00;101802.78;;;15.26;39.23
54850;BME280;47660;51.334;12.396;2024-01-27T06:30:25;101803.66;;;14.96;39.59
54850;BME280;47660;51.334;12.396;2024-01-27T06:32:50;101796.09;;;14.88;39.83
54850;BME280;47660;51.334;12.396;2024-01-27T06:35:15;101805.56;;;14.94;39.71
54850;BME280;47660;51.334;12.396;2024-01-27T06:37:41;101800.56;;;14.88;39.83
54850;BME280;47660;51.334;12.396;2024-01-27T06:40:07;101808.28;;;14.62;40.52
54850;BME280;47660;51.334;12.396;2024-01-27T06:42:34;101812.53;;;14.96;39.79
54850;BME280;47660;51.334;12.396;2024-01-27T06:44:59;101811.47;;;14.68;40.13
54850;BME280;47660;51.334;12.396;2024-01-27T06:47:24;101811.22;;;14.41;40.74
54850;BME280;47660;51.334;12.396;2024-01-27T06:49:50;101814.84;;;14.40;40.60
54850;BME280;47660;51.334;12.396;2024-01-27T06:52:18;101803.75;;;13.98;41.28
54850;BME280;47660;51.334;12.396;2024-01-27T06:54:43;101813.19;;;14.21;41.08
54850;BME280;47660;51.334;12.396;2024-01-27T06:57:23;101816.69;;;15.02;40.17
54850;BME280;47660;51.334;12.396;2024-01-27T06:59:50;101823.56;;;14.76;40.58
54850;BME280;47660;51.334;12.396;2024-01-27T07:02:28;101827.81;;;15.55;39.31
54850;BME280;47660;51.334;12.396;2024-01-27T07:04:54;101839.50;;;15.09;40.15
54850;BME280;47660;51.334;12.396;2024-01-27T07:07:22;101830.44;;;14.96;40.53
54850;BME280;47660;51.334;12.396;2024-01-27T07:09:49;101835.78;;;14.32;40.99
54850;BME280;47660;51.334;12.396;2024-01-27T07:12:14;101841.34;;;14.77;40.17
54850;BME280;47660;51.334;12.396;2024-01-27T07:14:39;101842.56;;;14.71;40.38
54850;BME280;47660;51.334;12.396;2024-01-27T07:17:05;101841.34;;;14.77;40.22
54850;BME280;47660;51.334;12.396;2024-01-27T07:19:30;101847.44;;;14.47;40.86
54850;BME280;47660;51.334;12.396;2024-01-27T07:21:56;101847.31;;;14.66;40.37
54850;BME280;47660;51.334;12.396;2024-01-27T07:24:21;101842.03;;;14.80;40.19
54850;BME280;47660;51.334;12.396;2024-01-27T07:26:46;101847.88;;;15.03;39.96
54850;BME280;47660;51.334;12.396;2024-01-27T07:29:12;101855.31;;;14.66;40.40
54850;BME280;47660;51.334;12.396;2024-01-27T07:31:37;101853.84;;;15.39;39.14
54850;BME280;47660;51.334;12.396;2024-01-27T07:34:03;101861.13;;;14.90;40.00
54850;BME280;47660;51.334;12.396;2024-01-27T07:36:29;101865.66;;;15.65;38.87
54850;BME280;47660;51.334;12.396;2024-01-27T07:38:57;101868.53;;;15.77;38.50
54850;BME280;47660;51.334;12.396;2024-01-27T07:41:22;101876.81;;;15.88;38.21
54850;BME280;47660;51.334;12.396;2024-01-27T07:43:47;101871.16;;;16.07;37.99
54850;BME280;47660;51.334;12.396;2024-01-27T07:46:13;101879.41;;;16.18;37.98
54850;BME280;47660;51.334;12.396;2024-01-27T07:48:38;101874.34;;;15.99;38.06
54850;BME280;47660;51.334;12.396;2024-01-27T07:51:04;101886.56;;;15.89;38.12
54850;BME280;47660;51.334;12.396;2024-01-27T07:53:29;101887.97;;;15.35;38.94
54850;BME280;47660;51.334;12.396;2024-01-27T07:55:54;101882.16;;;15.88;38.15
54850;BME280;47660;51.334;12.396;2024-01-27T07:58:21;101887.84;;;16.27;37.63
54850;BME280;47660;51.334;12.396;2024-01-27T08:00:46;101879.56;;;16.44;37.23
54850;BME280;47660;51.334;12.396;2024-01-27T08:03:12;101892.31;;;16.41;37.15
54850;BME280;47660;51.334;12.396;2024-01-27T08:05:37;101890.28;;;16.44;37.23
54850;BME280;47660;51.334;12.396;2024-01-27T08:08:02;101888.56;;;16.58;37.13
54850;BME280;47660;51.334;12.396;2024-01-27T08:10:28;101890.97;;;16.33;37.31
54850;BME280;47660;51.334;12.396;2024-01-27T08:12:54;101881.97;;;16.49;36.77
54850;BME280;47660;51.334;12.396;2024-01-27T08:15:19;101889.25;;;16.32;37.27
54850;BME280;47660;51.334;12.396;2024-01-27T08:17:44;101888.16;;;15.77;37.85
54850;BME280;47660;51.334;12.396;2024-01-27T08:20:10;101887.47;;;15.59;38.65
54850;BME280;47660;51.334;12.396;2024-01-27T08:22:35;101893.81;;;15.11;39.44
54850;BME280;47660;51.334;12.396;2024-01-27T08:25:00;101904.69;;;15.24;39.09
54850;BME280;47660;51.334;12.396;2024-01-27T08:27:26;101901.28;;;15.21;39.08
54850;BME280;47660;51.334;12.396;2024-01-27T08:29:51;101898.22;;;15.12;39.15
54850;BME280;47660;51.334;12.396;2024-01-27T08:32:16;101901.75;;;15.13;39.16
54850;BME280;47660;51.334;12.396;2024-01-27T08:34:42;101903.63;;;15.27;38.99
54850;BME280;47660;51.334;12.396;2024-01-27T08:37:19;101904.88;;;15.97;38.33
54850;BME280;47660;51.334;12.396;2024-01-27T08:39:45;101902.72;;;15.42;38.84
54850;BME280;47660;51.334;12.396;2024-01-27T08:42:11;101903.97;;;15.37;39.31
54850;BME280;47660;51.334;12.396;2024-01-27T08:44:37;101915.03;;;15.61;38.85
54850;BME280;47660;51.334;12.396;2024-01-27T08:47:02;101916.84;;;15.30;39.10
54850;BME280;47660;51.334;12.396;2024-01-27T08:49:28;101917.13;;;15.56;38.70
54850;BME280;47660;51.334;12.396;2024-01-27T08:51:53;101927.75;;;15.88;38.25
54850;BME280;47660;51.334;12.396;2024-01-27T08:54:20;101931.91;;;16.08;37.96
54850;BME280;47660;51.334;12.396;2024-01-27T08:56:45;101931.97;;;15.92;38.16
54850;BME280;47660;51.334;12.396;2024-01-27T08:59:10;101933.63;;;15.48;39.03
54850;BME280;47660;51.334;12.396;2024-01-27T09:01:36;101936.97;;;15.37;39.25
54850;BME280;47660;51.334;12.396;2024-01-27T09:04:01;101949.06;;;15.75;38.82
54850;BME280;47660;51.334;12.396;2024-01-27T09:06:29;101951.88;;;15.88;38.60
54850;BME280;47660;51.334;12.396;2024-01-27T09:08:55;101950.50;;;16.26;38.01
54850;BME280;47660;51.334;12.396;2024-01-27T09:11:20;101941.34;;;16.72;37.40
54850;BME280;47660;51.334;12.396;2024-01-27T09:13:47;101942.03;;;16.75;37.19
54850;BME280;47660;51.334;12.396;2024-01-27T09:16:14;101945.56;;;15.89;38.52
54850;BME280;47660;51.334;12.396;2024-01-27T09:18:39;101949.63;;;16.40;38.03
54850;BME280;47660;51.334;12.396;2024-01-27T09:21:04;101959.00;;;16.03;38.42
54850;BME280;47660;51.334;12.396;2024-01-27T09:23:30;101954.44;;;16.49;37.75
54850;BME280;47660;51.334;12.396;2024-01-27T09:25:55;101961.25;;;15.34;39.53
54850;BME280;47660;51.334;12.396;2024-01-27T09:28:20;101957.47;;;16.28;38.31
54850;BME280;47660;51.334;12.396;2024-01-27T09:30:46;101955.00;;;16.40;38.15
54850;BME280;47660;51.334;12.396;2024-01-27T09:33:11;101960.94;;;16.45;37.96
54850;BME280;47660;51.334;12.396;2024-01-27T09:35:36;101952.13;;;16.43;38.05
54850;BME280;47660;51.334;12.396;2024-01-27T09:38:02;101962.66;;;16.31;38.22
54850;BME280;47660;51.334;12.396;2024-01-27T09:40:27;101955.00;;;16.54;37.93
54850;BME280;47660;51.334;12.396;2024-01-27T09:42:58;101955.53;;;16.74;37.95
54850;BME280;47660;51.334;12.396;2024-01-27T09:45:24;101955.75;;;16.27;38.15
54850;BME280;47660;51.334;12.396;2024-01-27T09:47:51;101957.75;;;16.53;38.43
54850;BME280;47660;51.334;12.396;2024-01-27T09:50:17;101948.00;;;15.78;39.26
54850;BME280;47660;51.334;12.396;2024-01-27T09:52:43;101966.84;;;15.92;39.05
54850;BME280;47660;51.334;12.396;2024-01-27T09:55:09;101959.19;;;16.73;38.04
54850;BME280;47660;51.334;12.396;2024-01-27T09:57:37;101959.38;;;17.26;37.56
54850;BME280;47660;51.334;12.396;2024-01-27T10:00:04;101948.31;;;17.03;37.53
54850;BME280;47660;51.334;12.396;2024-01-27T10:02:31;101958.22;;;16.16;38.88
54850;BME280;47660;51.334;12.396;2024-01-27T10:05:01;101952.91;;;16.87;37.89
54850;BME280;47660;51.334;12.396;2024-01-27T10:07:27;101951.19;;;17.28;37.47
54850;BME280;47660;51.334;12.396;2024-01-27T10:09:52;101951.63;;;17.62;36.37
54850;BME280;47660;51.334;12.396;2024-01-27T10:12:20;101940.94;;;19.74;34.48
54850;BME280;47660;51.334;12.396;2024-01-27T10:14:45;101943.38;;;22.00;30.70
54850;BME280;47660;51.334;12.396;2024-01-27T10:17:20;101945.59;;;25.18;27.01
54850;BME280;47660;51.334;12.396;2024-01-27T10:19:47;101936.41;;;25.37;25.28
54850;BME280;47660;51.334;12.396;2024-01-27T10:22:13;101935.00;;;27.41;23.86
54850;BME280;47660;51.334;12.396;2024-01-27T10:24:38;101949.13;;;28.02;22.97
54850;BME280;47660;51.334;12.396;2024-01-27T10:27:04;101934.69;;;28.42;22.58
54850;BME280;47660;51.334;12.396;2024-01-27T10:29:30;101940.53;;;29.02;21.98
54850;BME280;47660;51.334;12.396;2024-01-27T10:31:55;101942.25;;;29.03;21.53
54850;BME280;47660;51.334;12.396;2024-01-27T10:34:21;101946.31;;;29.07;21.60
54850;BME280;47660;51.334;12.396;2024-01-27T10:36:46;101943.91;;;29.74;20.95
54850;BME280;47660;51.334;12.396;2024-01-27T10:39:21;101946.81;;;28.48;21.72
54850;BME280;47660;51.334;12.396;2024-01-27T10:41:47;101951.47;;;29.87;20.84
54850;BME280;47660;51.334;12.396;2024-01-27T10:44:14;101946.13;;;30.53;20.16
54850;BME280;47660;51.334;12.396;2024-01-27T10:46:43;101941.75;;;31.61;19.59
54850;BME280;47660;51.334;12.396;2024-01-27T10:49:12;101940.63;;;31.27;19.34
54850;BME280;47660;51.334;12.396;2024-01-27T10:51:43;101942.00;;;31.16;19.30
54850;BME280;47660;51.334;12.396;2024-01-27T10:54:13;101944.22;;;30.69;19.85
54850;BME280;47660;51.334;12.396;2024-01-27T10:56:40;101936.84;;;31.28;19.09
54850;BME280;47660;51.334;12.396;2024-01-27T10:59:09;101930.44;;;31.71;18.77
54850;BME280;47660;51.334;12.396;2024-01-27T11:01:36;101937.47;;;31.52;19.25
54850;BME280;47660;51.334;12.396;2024-01-27T11:04:03;101945.66;;;30.35;19.84
54850;BME280;47660;51.334;12.396;2024-01-27T11:06:31;101939.81;;;29.55;20.19
54850;BME280;47660;51.334;12.396;2024-01-27T11:08:59;101955.78;;;28.65;21.01
54850;BME280;47660;51.334;12.396;2024-01-27T11:11:24;101949.66;;;30.32;20.51
54850;BME280;47660;51.334;12.396;2024-01-27T11:13:50;101958.16;;;29.54;19.99
54850;BME280;47660;51.334;12.396;2024-01-27T11:16:17;101957.75;;;30.71;19.41
54850;BME280;47660;51.334;12.396;2024-01-27T11:18:43;101958.22;;;27.95;21.93
54850;BME280;47660;51.334;12.396;2024-01-27T11:21:15;101955.13;;;27.07;22.45
54850;BME280;47660;51.334;12.396;2024-01-27T11:23:41;101943.81;;;28.66;21.02
54850;BME280;47660;51.334;12.396;2024-01-27T11:26:07;101940.22;;;28.65;21.31
54850;BME280;47660;51.334;12.396;2024-01-27T11:28:33;101932.94;;;28.89;20.75
54850;BME280;47660;51.334;12.396;2024-01-27T11:31:03;101939.59;;;30.91;19.51
54850;BME280;47660;51.334;12.396;2024-01-27T11:33:29;101949.00;;;30.30;19.52
54850;BME280;47660;51.334;12.396;2024-01-27T11:36:04;101940.19;;;31.08;18.87
54850;BME280;47660;51.334;12.396;2024-01-27T11:38:33;101941.84;;;31.46;19.00
54850;BME280;47660;51.334;12.396;2024-01-27T11:41:01;101945.09;;;32.13;18.15
54850;BME280;47660;51.334;12.396;2024-01-27T11:43:26;101951.19;;;31.08;18.90
54850;BME280;47660;51.334;12.396;2024-01-27T11:45:59;101949.69;;;32.35;17.91
54850;BME280;47660;51.334;12.396;2024-01-27T11:48:24;101959.03;;;31.77;18.40
54850;BME280;47660;51.334;12.396;2024-01-27T11:51:11;101955.19;;;32.35;17.95
54850;BME280;47660;51.334;12.396;2024-01-27T11:53:37;101948.69;;;32.49;18.09
54850;BME280;47660;51.334;12.396;2024-01-27T11:56:03;101959.84;;;32.06;18.40
54850;BME280;47660;51.334;12.396;2024-01-27T11:58:30;101965.25;;;30.98;18.58
54850;BME280;47660;51.334;12.396;2024-01-27T12:00:56;101977.56;;;30.06;19.54
54850;BME280;47660;51.334;12.396;2024-01-27T12:03:22;101968.09;;;31.27;18.70
54850;BME280;47660;51.334;12.396;2024-01-27T12:05:47;101980.56;;;31.08;18.68
54850;BME280;47660;51.334;12.396;2024-01-27T12:08:15;101968.06;;;30.53;18.93
54850;BME280;47660;51.334;12.396;2024-01-27T12:10:41;101974.09;;;31.16;18.75
54850;BME280;47660;51.334;12.396;2024-01-27T12:13:06;101970.56;;;31.00;18.52
54850;BME280;47660;51.334;12.396;2024-01-27T12:15:32;101962.66;;;32.12;17.99
54850;BME280;47660;51.334;12.396;2024-01-27T12:17:57;101959.28;;;31.60;18.73
54850;BME280;47660;51.334;12.396;2024-01-27T12:20:23;101957.78;;;30.92;18.25
54850;BME280;47660;51.334;12.396;2024-01-27T12:22:48;101966.81;;;30.71;18.68
54850;BME280;47660;51.334;12.396;2024-01-27T12:25:20;101963.03;;;30.72;18.53
54850;BME280;47660;51.334;12.396;2024-01-27T12:27:46;101972.38;;;29.49;19.20
54850;BME280;47660;51.334;12.396;2024-01-27T12:30:11;101960.13;;;30.29;18.65
54850;BME280;47660;51.334;12.396;2024-01-27T12:32:37;101963.34;;;30.47;18.83
54850;BME280;47660;51.334;12.396;2024-01-27T12:35:06;101950.88;;;31.90;18.25
54850;BME280;47660;51.334;12.396;2024-01-27T12:37:32;101958.38;;;30.88;18.34